sensor_id;sensor_type;location;lat;lon;timestamp;P1;durP1;ratioP1;P2;durP2;ratioP2
69529;SDS011;56727;47.188;8.840;2024-03-07T00:00:06;6.80;;;2.50;;
69529;SDS011;56727;47.188;8.840;2024-03-07T00:03:00;6.30;;;2.10;;
69529;SDS011;56727;47.188;8.840;2024-03-07T00:05:27;5.50;;;1.90;;
69529;SDS011;56727;47.188;8.840;2024-03-07T00:07:54;6.10;;;1.90;;
69529;SDS011;56727;47.188;8.840;2024-03-07T00:10:21;6.60;;;2.10;;
69529;SDS011;56727;47.188;8.840;2024-03-07T00:12:47;5.90;;;2.00;;
69529;SDS011;56727;47.188;8.840;2024-03-07T00:15:15;7.10;;;1.70;;
69529;SDS011;56727;47.188;8.840;2024-03-07T00:17:41;5.30;;;1.50;;
69529;SDS011;56727;47.188;8.840;2024-03-07T00:20:09;6.90;;;2.10;;
69529;SDS011;56727;47.188;8.840;2024-03-07T00:22:41;6.60;;;2.50;;
69529;SDS011;56727;47.188;8.840;2024-03-07T00:25:08;6.40;;;2.30;;
69529;SDS011;56727;47.188;8.840;2024-03-07T00:27:36;6.30;;;2.30;;
69529;SDS011;56727;47.188;8.840;2024-03-07T00:30:05;6.80;;;2.60;;
69529;SDS011;56727;47.188;8.840;2024-03-07T00:32:35;7.10;;;2.60;;
69529;SDS011;56727;47.188;8.840;2024-03-07T00:35:06;6.80;;;2.40;;
69529;SDS011;56727;47.188;8.840;2024-03-07T00:37:34;6.80;;;2.60;;
69529;SDS011;56727;47.188;8.840;2024-03-07T00:40:03;6.90;;;2.60;;
69529;SDS011;56727;47.188;8.840;2024-03-07T00:42:30;7.00;;;2.90;;
69529;SDS011;56727;47.188;8.840;2024-03-07T00:44:56;8.50;;;3.70;;
69529;SDS011;56727;47.188;8.840;2024-03-07T00:47:23;7.50;;;3.30;;
69529;SDS011;56727;47.188;8.840;2024-03-07T00:49:50;8.80;;;3.60;;
69529;SDS011;56727;47.188;8.840;2024-03-07T00:55:41;6.70;;;2.90;;
69529;SDS011;56727;47.188;8.840;2024-03-07T00:58:08;7.80;;;3.20;;
69529;SDS011;56727;47.188;8.840;2024-03-07T01:00:34;9.40;;;3.60;;
69529;SDS011;56727;47.188;8.840;2024-03-07T01:03:01;9.70;;;3.90;;
69529;SDS011;56727;47.188;8.840;2024-03-07T01:05:27;9.00;;;4.00;;
69529;SDS011;56727;47.188;8.840;2024-03-07T01:07:54;9.00;;;4.50;;
69529;SDS011;56727;47.188;8.840;2024-03-07T01:10:22;8.40;;;4.30;;
69529;SDS011;56727;47.188;8.840;2024-03-07T01:12:48;9.40;;;4.10;;
69529;SDS011;56727;47.188;8.840;2024-03-07T01:15:16;10.10;;;3.80;;
69529;SDS011;56727;47.188;8.840;2024-03-07T01:17:42;10.00;;;4.50;;
69529;SDS011;56727;47.188;8.840;2024-03-07T01:20:10;9.40;;;4.40;;
69529;SDS011;56727;47.188;8.840;2024-03-07T01:22:37;9.80;;;4.40;;
69529;SDS011;56727;47.188;8.840;2024-03-07T01:25:04;8.60;;;3.90;;
69529;SDS011;56727;47.188;8.840;2024-03-07T01:27:31;9.10;;;4.30;;
69529;SDS011;56727;47.188;8.840;2024-03-07T01:29:58;8.50;;;3.90;;
69529;SDS011;56727;47.188;8.840;2024-03-07T01:32:24;10.40;;;4.40;;
69529;SDS011;56727;47.188;8.840;2024-03-07T01:34:51;10.30;;;4.00;;
69529;SDS011;56727;47.188;8.840;2024-03-07T01:37:17;10.30;;;4.20;;
69529;SDS011;56727;47.188;8.840;2024-03-07T01:39:44;9.30;;;4.00;;
69529;SDS011;56727;47.188;8.840;2024-03-07T01:42:11;9.90;;;4.20;;
69529;SDS011;56727;47.188;8.840;2024-03-07T01:44:37;10.00;;;4.20;;
69529;SDS011;56727;47.188;8.840;2024-03-07T01:47:04;9.50;;;4.10;;
69529;SDS011;56727;47.188;8.840;2024-03-07T01:49:32;9.70;;;4.10;;
69529;SDS011;56727;47.188;8.840;2024-03-07T01:51:59;10.20;;;4.70;;
69529;SDS011;56727;47.188;8.840;2024-03-07T01:54:26;11.70;;;5.60;;
69529;SDS011;56727;47.188;8.840;2024-03-07T01:56:55;10.60;;;4.70;;
69529;SDS011;56727;47.188;8.840;2024-03-07T01:59:22;9.90;;;4.40;;
69529;SDS011;56727;47.188;8.840;2024-03-07T02:01:49;9.50;;;4.50;;
69529;SDS011;56727;47.188;8.840;2024-03-07T02:04:17;10.60;;;4.30;;
69529;SDS011;56727;47.188;8.840;2024-03-07T02:06:43;9.90;;;4.60;;
69529;SDS011;56727;47.188;8.840;2024-03-07T02:09:11;10.60;;;4.90;;
69529;SDS011;56727;47.188;8.840;2024-03-07T02:11:37;9.70;;;4.40;;
69529;SDS011;56727;47.188;8.840;2024-03-07T02:14:04;11.20;;;4.70;;
69529;SDS011;56727;47.188;8.840;2024-03-07T02:16:31;9.50;;;4.40;;
69529;SDS011;56727;47.188;8.840;2024-03-07T02:18:57;9.90;;;4.30;;
69529;SDS011;56727;47.188;8.840;2024-03-07T02:21:26;9.70;;;4.40;;
69529;SDS011;56727;47.188;8.840;2024-03-07T02:23:52;11.30;;;4.40;;
69529;SDS011;56727;47.188;8.840;2024-03-07T02:26:19;10.50;;;4.40;;
69529;SDS011;56727;47.188;8.840;2024-03-07T02:28:45;11.00;;;4.90;;
69529;SDS011;56727;47.188;8.840;2024-03-07T02:31:12;9.30;;;4.20;;
69529;SDS011;56727;47.188;8.840;2024-03-07T02:33:38;10.20;;;4.50;;
69529;SDS011;56727;47.188;8.840;2024-03-07T02:36:06;11.20;;;5.00;;
69529;SDS011;56727;47.188;8.840;2024-03-07T02:38:33;16.90;;;7.80;;
69529;SDS011;56727;47.188;8.840;2024-03-07T02:41:00;19.60;;;8.70;;
69529;SDS011;56727;47.188;8.840;2024-03-07T02:43:27;18.00;;;7.80;;
69529;SDS011;56727;47.188;8.840;2024-03-07T02:45:53;15.60;;;7.00;;
69529;SDS011;56727;47.188;8.840;2024-03-07T02:48:21;16.60;;;6.60;;
69529;SDS011;56727;47.188;8.840;2024-03-07T02:50:47;16.30;;;8.00;;
69529;SDS011;56727;47.188;8.840;2024-03-07T02:53:13;13.90;;;6.80;;
69529;SDS011;56727;47.188;8.840;2024-03-07T02:55:40;16.20;;;7.10;;
69529;SDS011;56727;47.188;8.840;2024-03-07T02:58:07;14.70;;;6.60;;
69529;SDS011;56727;47.188;8.840;2024-03-07T03:00:34;15.90;;;7.20;;
69529;SDS011;56727;47.188;8.840;2024-03-07T03:03:01;16.20;;;7.40;;
69529;SDS011;56727;47.188;8.840;2024-03-07T03:05:27;17.40;;;7.60;;
69529;SDS011;56727;47.188;8.840;2024-03-07T03:07:54;14.70;;;7.10;;
69529;SDS011;56727;47.188;8.840;2024-03-07T03:10:25;16.30;;;7.30;;
69529;SDS011;56727;47.188;8.840;2024-03-07T03:12:52;22.40;;;10.30;;
69529;SDS011;56727;47.188;8.840;2024-03-07T03:15:20;30.70;;;14.00;;
69529;SDS011;56727;47.188;8.840;2024-03-07T03:17:47;28.80;;;13.40;;
69529;SDS011;56727;47.188;8.840;2024-03-07T03:20:14;22.90;;;10.50;;
69529;SDS011;56727;47.188;8.840;2024-03-07T03:22:53;24.30;;;10.80;;
69529;SDS011;56727;47.188;8.840;2024-03-07T03:25:21;17.00;;;7.70;;
69529;SDS011;56727;47.188;8.840;2024-03-07T03:27:47;14.60;;;6.10;;
69529;SDS011;56727;47.188;8.840;2024-03-07T03:30:15;11.40;;;5.20;;
69529;SDS011;56727;47.188;8.840;2024-03-07T03:32:46;11.20;;;5.30;;
69529;SDS011;56727;47.188;8.840;2024-03-07T03:35:14;17.70;;;7.30;;
69529;SDS011;56727;47.188;8.840;2024-03-07T03:37:45;22.70;;;9.20;;
69529;SDS011;56727;47.188;8.840;2024-03-07T03:40:12;23.40;;;10.40;;
69529;SDS011;56727;47.188;8.840;2024-03-07T03:42:40;27.00;;;11.10;;
69529;SDS011;56727;47.188;8.840;2024-03-07T03:45:09;18.30;;;8.30;;
69529;SDS011;56727;47.188;8.840;2024-03-07T03:47:41;15.00;;;6.30;;
69529;SDS011;56727;47.188;8.840;2024-03-07T03:50:10;13.90;;;5.20;;
69529;SDS011;56727;47.188;8.840;2024-03-07T03:52:39;10.80;;;4.10;;
69529;SDS011;56727;47.188;8.840;2024-03-07T03:55:07;10.30;;;4.20;;
69529;SDS011;56727;47.188;8.840;2024-03-07T03:57:39;12.00;;;5.00;;
69529;SDS011;56727;47.188;8.840;2024-03-07T04:00:09;14.40;;;6.10;;
69529;SDS011;56727;47.188;8.840;2024-03-07T04:02:40;14.30;;;5.80;;
69529;SDS011;56727;47.188;8.840;2024-03-07T04:05:09;15.30;;;6.60;;
69529;SDS011;56727;47.188;8.840;2024-03-07T04:07:38;15.80;;;6.50;;
69529;SDS011;56727;47.188;8.840;2024-03-07T04:10:05;17.10;;;6.80;;
69529;SDS011;56727;47.188;8.840;2024-03-07T04:12:39;15.80;;;7.20;;
69529;SDS011;56727;47.188;8.840;2024-03-07T04:15:11;16.00;;;6.70;;
69529;SDS011;56727;47.188;8.840;2024-03-07T04:17:40;15.20;;;6.30;;
69529;SDS011;56727;47.188;8.840;2024-03-07T04:20:07;12.60;;;5.70;;
69529;SDS011;56727;47.188;8.840;2024-03-07T04:22:37;12.80;;;5.30;;
69529;SDS011;56727;47.188;8.840;2024-03-07T04:25:07;12.30;;;5.10;;
69529;SDS011;56727;47.188;8.840;2024-03-07T04:27:36;12.70;;;5.10;;
69529;SDS011;56727;47.188;8.840;2024-03-07T04:30:04;13.50;;;5.30;;
69529;SDS011;56727;47.188;8.840;2024-03-07T04:32:31;9.70;;;4.00;;
69529;SDS011;56727;47.188;8.840;2024-03-07T04:34:58;10.70;;;4.70;;
69529;SDS011;56727;47.188;8.840;2024-03-07T04:37:25;9.10;;;3.80;;
69529;SDS011;56727;47.188;8.840;2024-03-07T04:39:53;7.80;;;2.90;;
69529;SDS011;56727;47.188;8.840;2024-03-07T04:42:20;9.20;;;3.60;;
69529;SDS011;56727;47.188;8.840;2024-03-07T04:44:46;8.60;;;3.30;;
69529;SDS011;56727;47.188;8.840;2024-03-07T04:47:13;8.10;;;3.60;;
69529;SDS011;56727;47.188;8.840;2024-03-07T04:49:39;9.50;;;4.20;;
69529;SDS011;56727;47.188;8.840;2024-03-07T04:52:07;8.20;;;3.50;;
69529;SDS011;56727;47.188;8.840;2024-03-07T04:54:33;8.30;;;3.50;;
69529;SDS011;56727;47.188;8.840;2024-03-07T04:57:00;11.20;;;4.10;;
69529;SDS011;56727;47.188;8.840;2024-03-07T04:59:27;12.70;;;6.50;;
69529;SDS011;56727;47.188;8.840;2024-03-07T05:01:53;16.00;;;7.70;;
69529;SDS011;56727;47.188;8.840;2024-03-07T05:04:20;18.60;;;9.10;;
69529;SDS011;56727;47.188;8.840;2024-03-07T05:06:46;18.50;;;9.10;;
69529;SDS011;56727;47.188;8.840;2024-03-07T05:09:14;18.70;;;9.20;;
69529;SDS011;56727;47.188;8.840;2024-03-07T05:11:51;14.40;;;7.20;;
69529;SDS011;56727;47.188;8.840;2024-03-07T05:14:18;17.10;;;7.60;;
69529;SDS011;56727;47.188;8.840;2024-03-07T05:16:45;14.40;;;6.70;;
69529;SDS011;56727;47.188;8.840;2024-03-07T05:19:12;15.20;;;7.20;;
69529;SDS011;56727;47.188;8.840;2024-03-07T05:21:39;17.90;;;8.20;;
69529;SDS011;56727;47.188;8.840;2024-03-07T05:24:07;16.90;;;7.60;;
69529;SDS011;56727;47.188;8.840;2024-03-07T05:26:35;11.00;;;5.20;;
69529;SDS011;56727;47.188;8.840;2024-03-07T05:29:08;10.20;;;4.50;;
69529;SDS011;56727;47.188;8.840;2024-03-07T05:31:37;10.00;;;4.20;;
69529;SDS011;56727;47.188;8.840;2024-03-07T05:34:05;10.00;;;3.80;;
69529;SDS011;56727;47.188;8.840;2024-03-07T05:36:35;9.30;;;4.10;;
69529;SDS011;56727;47.188;8.840;2024-03-07T05:39:02;10.10;;;4.50;;
69529;SDS011;56727;47.188;8.840;2024-03-07T05:41:38;8.60;;;4.00;;
69529;SDS011;56727;47.188;8.840;2024-03-07T05:44:06;10.00;;;4.10;;
69529;SDS011;56727;47.188;8.840;2024-03-07T05:46:36;8.90;;;4.00;;
69529;SDS011;56727;47.188;8.840;2024-03-07T05:49:08;9.50;;;4.20;;
69529;SDS011;56727;47.188;8.840;2024-03-07T05:51:34;8.20;;;3.20;;
69529;SDS011;56727;47.188;8.840;2024-03-07T05:54:02;8.50;;;3.60;;
69529;SDS011;56727;47.188;8.840;2024-03-07T05:56:33;8.30;;;3.00;;
69529;SDS011;56727;47.188;8.840;2024-03-07T05:59:03;7.50;;;2.70;;
69529;SDS011;56727;47.188;8.840;2024-03-07T06:01:39;7.80;;;2.90;;
69529;SDS011;56727;47.188;8.840;2024-03-07T06:04:06;6.50;;;2.20;;
69529;SDS011;56727;47.188;8.840;2024-03-07T06:06:35;6.10;;;1.90;;
69529;SDS011;56727;47.188;8.840;2024-03-07T06:09:03;7.50;;;2.80;;
69529;SDS011;56727;47.188;8.840;2024-03-07T06:11:35;7.50;;;2.80;;
69529;SDS011;56727;47.188;8.840;2024-03-07T06:14:06;8.90;;;2.50;;
69529;SDS011;56727;47.188;8.840;2024-03-07T06:16:35;8.80;;;3.40;;
69529;SDS011;56727;47.188;8.840;2024-03-07T06:19:05;9.30;;;3.10;;
69529;SDS011;56727;47.188;8.840;2024-03-07T06:21:35;9.30;;;3.80;;
69529;SDS011;56727;47.188;8.840;2024-03-07T06:24:03;6.10;;;2.20;;
69529;SDS011;56727;47.188;8.840;2024-03-07T06:26:32;6.60;;;2.30;;
69529;SDS011;56727;47.188;8.840;2024-03-07T06:29:15;5.60;;;2.00;;
69529;SDS011;56727;47.188;8.840;2024-03-07T06:31:44;6.50;;;2.60;;
69529;SDS011;56727;47.188;8.840;2024-03-07T06:34:14;5.00;;;1.30;;
69529;SDS011;56727;47.188;8.840;2024-03-07T06:36:41;6.00;;;1.90;;
69529;SDS011;56727;47.188;8.840;2024-03-07T06:39:08;5.20;;;1.60;;
69529;SDS011;56727;47.188;8.840;2024-03-07T06:41:36;5.10;;;1.30;;
69529;SDS011;56727;47.188;8.840;2024-03-07T06:44:03;5.20;;;1.50;;
69529;SDS011;56727;47.188;8.840;2024-03-07T06:46:30;4.80;;;1.30;;
69529;SDS011;56727;47.188;8.840;2024-03-07T06:49:00;5.40;;;1.50;;
69529;SDS011;56727;47.188;8.840;2024-03-07T06:51:27;5.50;;;1.80;;
69529;SDS011;56727;47.188;8.840;2024-03-07T06:53:54;5.20;;;1.50;;
69529;SDS011;56727;47.188;8.840;2024-03-07T06:56:22;5.50;;;1.30;;
69529;SDS011;56727;47.188;8.840;2024-03-07T06:58:50;6.20;;;1.40;;
69529;SDS011;56727;47.188;8.840;2024-03-07T07:01:16;4.90;;;1.30;;
69529;SDS011;56727;47.188;8.840;2024-03-07T07:03:44;4.80;;;1.30;;
69529;SDS011;56727;47.188;8.840;2024-03-07T07:06:12;5.00;;;1.30;;
69529;SDS011;56727;47.188;8.840;2024-03-07T07:08:38;4.30;;;1.30;;
69529;SDS011;56727;47.188;8.840;2024-03-07T07:11:05;4.40;;;1.10;;
69529;SDS011;56727;47.188;8.840;2024-03-07T07:13:31;6.50;;;2.50;;
69529;SDS011;56727;47.188;8.840;2024-03-07T07:15:58;7.00;;;2.80;;
69529;SDS011;56727;47.188;8.840;2024-03-07T07:18:25;7.10;;;2.80;;
69529;SDS011;56727;47.188;8.840;2024-03-07T07:20:52;7.60;;;2.80;;
69529;SDS011;56727;47.188;8.840;2024-03-07T07:23:19;7.80;;;3.20;;
69529;SDS011;56727;47.188;8.840;2024-03-07T07:25:46;8.60;;;3.20;;
69529;SDS011;56727;47.188;8.840;2024-03-07T07:28:13;8.70;;;3.00;;
69529;SDS011;56727;47.188;8.840;2024-03-07T07:30:42;5.30;;;1.60;;
69529;SDS011;56727;47.188;8.840;2024-03-07T07:33:09;4.50;;;1.60;;
69529;SDS011;56727;47.188;8.840;2024-03-07T07:35:35;5.80;;;1.70;;
69529;SDS011;56727;47.188;8.840;2024-03-07T07:38:02;5.00;;;1.70;;
69529;SDS011;56727;47.188;8.840;2024-03-07T07:40:28;5.40;;;2.00;;
69529;SDS011;56727;47.188;8.840;2024-03-07T07:42:57;5.90;;;1.80;;
69529;SDS011;56727;47.188;8.840;2024-03-07T07:45:24;8.60;;;2.40;;
69529;SDS011;56727;47.188;8.840;2024-03-07T07:47:52;6.40;;;2.10;;
69529;SDS011;56727;47.188;8.840;2024-03-07T07:50:21;5.60;;;2.20;;
69529;SDS011;56727;47.188;8.840;2024-03-07T07:52:51;5.90;;;2.10;;
69529;SDS011;56727;47.188;8.840;2024-03-07T07:55:21;6.20;;;2.00;;
69529;SDS011;56727;47.188;8.840;2024-03-07T07:57:51;5.20;;;1.80;;
69529;SDS011;56727;47.188;8.840;2024-03-07T08:00:20;5.90;;;1.90;;
69529;SDS011;56727;47.188;8.840;2024-03-07T08:02:50;5.50;;;1.90;;
69529;SDS011;56727;47.188;8.840;2024-03-07T08:05:20;5.00;;;1.60;;
69529;SDS011;56727;47.188;8.840;2024-03-07T08:07:53;6.40;;;2.40;;
69529;SDS011;56727;47.188;8.840;2024-03-07T08:10:27;6.10;;;2.30;;
69529;SDS011;56727;47.188;8.840;2024-03-07T08:12:58;7.00;;;2.50;;
69529;SDS011;56727;47.188;8.840;2024-03-07T08:15:26;5.90;;;2.10;;
69529;SDS011;56727;47.188;8.840;2024-03-07T08:17:55;7.30;;;2.70;;
69529;SDS011;56727;47.188;8.840;2024-03-07T08:20:23;8.50;;;2.90;;
69529;SDS011;56727;47.188;8.840;2024-03-07T08:22:55;6.90;;;2.50;;
69529;SDS011;56727;47.188;8.840;2024-03-07T08:25:24;7.20;;;3.00;;
69529;SDS011;56727;47.188;8.840;2024-03-07T08:27:53;7.30;;;2.80;;
69529;SDS011;56727;47.188;8.840;2024-03-07T08:30:21;7.50;;;2.80;;
69529;SDS011;56727;47.188;8.840;2024-03-07T08:32:50;7.50;;;2.70;;
69529;SDS011;56727;47.188;8.840;2024-03-07T08:35:21;6.50;;;2.80;;
69529;SDS011;56727;47.188;8.840;2024-03-07T08:37:49;7.30;;;2.20;;
69529;SDS011;56727;47.188;8.840;2024-03-07T08:40:20;6.10;;;2.20;;
69529;SDS011;56727;47.188;8.840;2024-03-07T08:42:50;6.90;;;2.70;;
69529;SDS011;56727;47.188;8.840;2024-03-07T08:45:21;6.70;;;2.60;;
69529;SDS011;56727;47.188;8.840;2024-03-07T08:47:52;9.10;;;2.20;;
69529;SDS011;56727;47.188;8.840;2024-03-07T08:50:23;5.40;;;1.80;;
69529;SDS011;56727;47.188;8.840;2024-03-07T08:52:51;7.10;;;2.80;;
69529;SDS011;56727;47.188;8.840;2024-03-07T08:55:20;7.30;;;2.90;;
69529;SDS011;56727;47.188;8.840;2024-03-07T08:57:49;7.00;;;2.60;;
69529;SDS011;56727;47.188;8.840;2024-03-07T09:00:17;6.90;;;2.60;;
69529;SDS011;56727;47.188;8.840;2024-03-07T09:02:55;6.60;;;2.30;;
69529;SDS011;56727;47.188;8.840;2024-03-07T09:05:30;6.00;;;2.20;;
69529;SDS011;56727;47.188;8.840;2024-03-07T09:07:59;6.70;;;2.20;;
69529;SDS011;56727;47.188;8.840;2024-03-07T09:10:26;6.10;;;2.30;;
69529;SDS011;56727;47.188;8.840;2024-03-07T09:12:56;6.50;;;2.30;;
69529;SDS011;56727;47.188;8.840;2024-03-07T09:15:23;7.10;;;2.80;;
69529;SDS011;56727;47.188;8.840;2024-03-07T09:17:50;6.70;;;2.60;;
69529;SDS011;56727;47.188;8.840;2024-03-07T09:20:17;7.50;;;2.70;;
69529;SDS011;56727;47.188;8.840;2024-03-07T09:22:46;7.30;;;3.00;;
69529;SDS011;56727;47.188;8.840;2024-03-07T09:25:17;7.50;;;2.70;;
69529;SDS011;56727;47.188;8.840;2024-03-07T09:27:45;6.60;;;2.60;;
69529;SDS011;56727;47.188;8.840;2024-03-07T09:30:12;5.90;;;2.20;;
69529;SDS011;56727;47.188;8.840;2024-03-07T09:32:41;6.60;;;2.10;;
69529;SDS011;56727;47.188;8.840;2024-03-07T09:35:08;6.70;;;2.30;;
69529;SDS011;56727;47.188;8.840;2024-03-07T09:37:40;7.30;;;2.70;;
69529;SDS011;56727;47.188;8.840;2024-03-07T09:40:08;6.60;;;2.00;;
69529;SDS011;56727;47.188;8.840;2024-03-07T09:42:44;6.30;;;2.60;;
69529;SDS011;56727;47.188;8.840;2024-03-07T09:45:16;5.50;;;2.00;;
69529;SDS011;56727;47.188;8.840;2024-03-07T09:47:48;5.40;;;1.80;;
69529;SDS011;56727;47.188;8.840;2024-03-07T09:50:17;6.50;;;2.30;;
69529;SDS011;56727;47.188;8.840;2024-03-07T09:52:52;6.40;;;2.40;;
69529;SDS011;56727;47.188;8.840;2024-03-07T09:55:19;7.40;;;2.50;;
69529;SDS011;56727;47.188;8.840;2024-03-07T09:57:48;6.50;;;2.50;;
69529;SDS011;56727;47.188;8.840;2024-03-07T10:00:17;8.10;;;2.60;;
69529;SDS011;56727;47.188;8.840;2024-03-07T10:02:56;6.10;;;2.20;;
69529;SDS011;56727;47.188;8.840;2024-03-07T10:05:27;5.80;;;2.30;;
69529;SDS011;56727;47.188;8.840;2024-03-07T10:07:54;5.00;;;1.60;;
69529;SDS011;56727;47.188;8.840;2024-03-07T10:10:21;5.50;;;2.00;;
69529;SDS011;56727;47.188;8.840;2024-03-07T10:12:51;5.40;;;2.00;;
69529;SDS011;56727;47.188;8.840;2024-03-07T10:15:19;5.80;;;2.00;;
69529;SDS011;56727;47.188;8.840;2024-03-07T10:17:46;5.90;;;2.00;;
69529;SDS011;56727;47.188;8.840;2024-03-07T10:20:14;6.70;;;2.40;;
69529;SDS011;56727;47.188;8.840;2024-03-07T10:22:46;7.50;;;2.00;;
69529;SDS011;56727;47.188;8.840;2024-03-07T10:25:13;7.00;;;2.30;;
69529;SDS011;56727;47.188;8.840;2024-03-07T10:27:40;8.90;;;2.00;;
69529;SDS011;56727;47.188;8.840;2024-03-07T10:30:09;5.70;;;2.00;;
69529;SDS011;56727;47.188;8.840;2024-03-07T10:32:36;4.90;;;1.70;;
69529;SDS011;56727;47.188;8.840;2024-03-07T10:35:03;5.40;;;1.70;;
69529;SDS011;56727;47.188;8.840;2024-03-07T10:37:34;8.20;;;2.00;;
69529;SDS011;56727;47.188;8.840;2024-03-07T10:40:03;5.00;;;1.70;;
69529;SDS011;56727;47.188;8.840;2024-03-07T10:42:46;5.30;;;1.60;;
69529;SDS011;56727;47.188;8.840;2024-03-07T10:45:21;5.60;;;1.70;;
69529;SDS011;56727;47.188;8.840;2024-03-07T10:47:54;5.30;;;2.00;;
69529;SDS011;56727;47.188;8.840;2024-03-07T10:57:31;4.70;;;1.40;;
69529;SDS011;56727;47.188;8.840;2024-03-07T11:00:09;5.60;;;1.60;;
69529;SDS011;56727;47.188;8.840;2024-03-07T11:02:56;5.40;;;1.80;;
69529;SDS011;56727;47.188;8.840;2024-03-07T11:05:26;5.30;;;1.70;;
69529;SDS011;56727;47.188;8.840;2024-03-07T11:07:58;5.10;;;1.60;;
69529;SDS011;56727;47.188;8.840;2024-03-07T11:10:38;5.20;;;1.90;;
69529;SDS011;56727;47.188;8.840;2024-03-07T11:13:08;5.20;;;1.80;;
69529;SDS011;56727;47.188;8.840;2024-03-07T11:15:42;5.60;;;2.00;;
69529;SDS011;56727;47.188;8.840;2024-03-07T11:18:11;5.50;;;1.70;;
69529;SDS011;56727;47.188;8.840;2024-03-07T11:20:39;7.20;;;1.80;;
69529;SDS011;56727;47.188;8.840;2024-03-07T11:23:29;5.30;;;1.70;;
69529;SDS011;56727;47.188;8.840;2024-03-07T11:26:06;5.80;;;2.30;;
69529;SDS011;56727;47.188;8.840;2024-03-07T11:28:38;5.80;;;1.80;;
69529;SDS011;56727;47.188;8.840;2024-03-07T11:31:41;5.40;;;2.00;;
69529;SDS011;56727;47.188;8.840;2024-03-07T11:34:14;5.20;;;1.90;;
69529;SDS011;56727;47.188;8.840;2024-03-07T11:36:43;5.40;;;1.60;;
69529;SDS011;56727;47.188;8.840;2024-03-07T11:39:41;5.10;;;1.90;;
69529;SDS011;56727;47.188;8.840;2024-03-07T11:42:09;5.70;;;1.90;;
69529;SDS011;56727;47.188;8.840;2024-03-07T11:44:57;6.40;;;1.60;;
69529;SDS011;56727;47.188;8.840;2024-03-07T11:47:25;5.10;;;1.80;;
69529;SDS011;56727;47.188;8.840;2024-03-07T11:49:56;5.20;;;1.70;;
69529;SDS011;56727;47.188;8.840;2024-03-07T11:52:24;6.00;;;2.20;;
69529;SDS011;56727;47.188;8.840;2024-03-07T11:54:53;5.30;;;1.90;;
69529;SDS011;56727;47.188;8.840;2024-03-07T11:57:23;7.00;;;1.70;;
69529;SDS011;56727;47.188;8.840;2024-03-07T11:59:59;5.00;;;1.70;;
69529;SDS011;56727;47.188;8.840;2024-03-07T12:02:38;6.20;;;1.80;;
69529;SDS011;56727;47.188;8.840;2024-03-07T12:05:06;5.40;;;1.70;;
69529;SDS011;56727;47.188;8.840;2024-03-07T12:07:33;5.90;;;2.00;;
69529;SDS011;56727;47.188;8.840;2024-03-07T12:10:02;5.70;;;2.00;;
69529;SDS011;56727;47.188;8.840;2024-03-07T12:12:33;6.10;;;2.20;;
69529;SDS011;56727;47.188;8.840;2024-03-07T12:15:00;5.70;;;1.90;;
69529;SDS011;56727;47.188;8.840;2024-03-07T12:17:32;6.10;;;2.20;;
69529;SDS011;56727;47.188;8.840;2024-03-07T12:19:58;5.40;;;2.10;;
69529;SDS011;56727;47.188;8.840;2024-03-07T12:22:29;7.10;;;2.10;;
69529;SDS011;56727;47.188;8.840;2024-03-07T12:25:00;5.60;;;1.90;;
69529;SDS011;56727;47.188;8.840;2024-03-07T12:27:34;5.20;;;1.80;;
69529;SDS011;56727;47.188;8.840;2024-03-07T12:30:01;5.30;;;2.20;;
69529;SDS011;56727;47.188;8.840;2024-03-07T12:32:34;5.90;;;2.10;;
69529;SDS011;56727;47.188;8.840;2024-03-07T12:35:04;5.10;;;1.70;;
69529;SDS011;56727;47.188;8.840;2024-03-07T12:37:35;6.00;;;2.40;;
69529;SDS011;56727;47.188;8.840;2024-03-07T12:40:11;6.20;;;2.20;;
69529;SDS011;56727;47.188;8.840;2024-03-07T12:42:48;6.40;;;1.90;;
69529;SDS011;56727;47.188;8.840;2024-03-07T12:45:17;5.50;;;2.10;;
69529;SDS011;56727;47.188;8.840;2024-03-07T12:47:48;6.30;;;2.20;;
69529;SDS011;56727;47.188;8.840;2024-03-07T12:50:19;5.80;;;1.90;;
69529;SDS011;56727;47.188;8.840;2024-03-07T12:52:48;6.30;;;2.30;;
69529;SDS011;56727;47.188;8.840;2024-03-07T12:55:18;5.50;;;2.20;;
69529;SDS011;56727;47.188;8.840;2024-03-07T12:57:45;5.70;;;2.20;;
69529;SDS011;56727;47.188;8.840;2024-03-07T13:00:12;6.10;;;2.30;;
69529;SDS011;56727;47.188;8.840;2024-03-07T13:02:47;6.10;;;2.40;;
69529;SDS011;56727;47.188;8.840;2024-03-07T13:05:13;5.70;;;2.00;;
69529;SDS011;56727;47.188;8.840;2024-03-07T13:07:48;5.30;;;2.00;;
69529;SDS011;56727;47.188;8.840;2024-03-07T13:10:15;6.00;;;2.30;;
69529;SDS011;56727;47.188;8.840;2024-03-07T13:12:44;5.80;;;2.10;;
69529;SDS011;56727;47.188;8.840;2024-03-07T13:15:12;5.70;;;2.20;;
69529;SDS011;56727;47.188;8.840;2024-03-07T13:17:39;5.80;;;2.40;;
69529;SDS011;56727;47.188;8.840;2024-03-07T13:20:08;6.30;;;2.40;;
69529;SDS011;56727;47.188;8.840;2024-03-07T13:22:40;5.70;;;2.10;;
69529;SDS011;56727;47.188;8.840;2024-03-07T13:25:24;5.90;;;2.00;;
69529;SDS011;56727;47.188;8.840;2024-03-07T13:28:12;5.50;;;1.90;;
69529;SDS011;56727;47.188;8.840;2024-03-07T13:30:44;5.60;;;2.00;;
69529;SDS011;56727;47.188;8.840;2024-03-07T13:33:14;5.90;;;2.00;;
69529;SDS011;56727;47.188;8.840;2024-03-07T13:35:41;7.10;;;2.30;;
69529;SDS011;56727;47.188;8.840;2024-03-07T13:38:09;6.20;;;2.30;;
69529;SDS011;56727;47.188;8.840;2024-03-07T13:40:36;6.50;;;2.20;;
69529;SDS011;56727;47.188;8.840;2024-03-07T13:43:06;5.90;;;2.20;;
69529;SDS011;56727;47.188;8.840;2024-03-07T13:45:35;5.90;;;2.20;;
69529;SDS011;56727;47.188;8.840;2024-03-07T13:48:08;6.30;;;1.90;;
69529;SDS011;56727;47.188;8.840;2024-03-07T13:50:37;5.20;;;1.80;;
69529;SDS011;56727;47.188;8.840;2024-03-07T13:53:15;6.90;;;1.80;;
69529;SDS011;56727;47.188;8.840;2024-03-07T13:59:31;6.10;;;1.90;;
69529;SDS011;56727;47.188;8.840;2024-03-07T14:02:57;5.10;;;2.00;;
69529;SDS011;56727;47.188;8.840;2024-03-07T14:06:03;6.70;;;2.30;;
69529;SDS011;56727;47.188;8.840;2024-03-07T14:09:14;5.80;;;2.10;;
69529;SDS011;56727;47.188;8.840;2024-03-07T14:12:25;5.90;;;2.20;;
69529;SDS011;56727;47.188;8.840;2024-03-07T14:36:56;6.60;;;2.50;;
69529;SDS011;56727;47.188;8.840;2024-03-07T14:39:31;6.80;;;2.30;;
69529;SDS011;56727;47.188;8.840;2024-03-07T14:42:04;6.00;;;2.20;;
69529;SDS011;56727;47.188;8.840;2024-03-07T14:44:43;6.50;;;2.30;;
69529;SDS011;56727;47.188;8.840;2024-03-07T14:47:12;6.60;;;2.50;;
69529;SDS011;56727;47.188;8.840;2024-03-07T14:49:40;6.00;;;2.20;;
69529;SDS011;56727;47.188;8.840;2024-03-07T14:52:08;6.60;;;2.10;;
69529;SDS011;56727;47.188;8.840;2024-03-07T14:54:38;5.40;;;1.90;;
69529;SDS011;56727;47.188;8.840;2024-03-07T14:57:05;6.40;;;2.30;;
69529;SDS011;56727;47.188;8.840;2024-03-07T14:59:32;5.90;;;1.90;;
69529;SDS011;56727;47.188;8.840;2024-03-07T15:01:59;5.00;;;1.90;;
69529;SDS011;56727;47.188;8.840;2024-03-07T15:04:31;5.30;;;1.90;;
69529;SDS011;56727;47.188;8.840;2024-03-07T15:06:59;5.30;;;2.10;;
69529;SDS011;56727;47.188;8.840;2024-03-07T15:09:28;6.30;;;1.70;;
69529;SDS011;56727;47.188;8.840;2024-03-07T15:11:56;5.30;;;2.00;;
69529;SDS011;56727;47.188;8.840;2024-03-07T15:14:23;4.90;;;1.70;;
69529;SDS011;56727;47.188;8.840;2024-03-07T15:16:50;5.70;;;2.00;;
69529;SDS011;56727;47.188;8.840;2024-03-07T15:19:16;7.60;;;1.70;;
69529;SDS011;56727;47.188;8.840;2024-03-07T15:21:44;5.50;;;1.70;;
69529;SDS011;56727;47.188;8.840;2024-03-07T15:24:12;6.80;;;2.20;;
69529;SDS011;56727;47.188;8.840;2024-03-07T15:26:39;5.60;;;2.10;;
69529;SDS011;56727;47.188;8.840;2024-03-07T15:29:05;5.70;;;2.00;;
69529;SDS011;56727;47.188;8.840;2024-03-07T15:31:33;5.20;;;1.70;;
69529;SDS011;56727;47.188;8.840;2024-03-07T15:34:00;5.30;;;1.90;;
69529;SDS011;56727;47.188;8.840;2024-03-07T15:36:26;6.40;;;2.10;;